sensor_id;sensor_type;location;lat;lon;timestamp;P1;durP1;ratioP1;P2;durP2;ratioP2
16784;SDS011;8509;52.178;5.404;2023-06-19T00:02:16;1.90;;;1.67;;
16784;SDS011;8509;52.178;5.404;2023-06-19T00:04:42;2.05;;;1.55;;
16784;SDS011;8509;52.178;5.404;2023-06-19T00:07:07;2.00;;;1.85;;
16784;SDS011;8509;52.178;5.404;2023-06-19T00:09:33;1.88;;;1.50;;
16784;SDS011;8509;52.178;5.404;2023-06-19T00:11:58;1.45;;;1.35;;
16784;SDS011;8509;52.178;5.404;2023-06-19T00:14:25;1.38;;;1.27;;
16784;SDS011;8509;52.178;5.404;2023-06-19T00:16:51;2.25;;;1.65;;
16784;SDS011;8509;52.178;5.404;2023-06-19T00:19:16;2.15;;;1.65;;
16784;SDS011;8509;52.178;5.404;2023-06-19T00:21:42;1.85;;;1.58;;
16784;SDS011;8509;52.178;5.404;2023-06-19T00:24:09;1.80;;;1.60;;
16784;SDS011;8509;52.178;5.404;2023-06-19T00:26:35;3.60;;;2.50;;
16784;SDS011;8509;52.178;5.404;2023-06-19T00:29:00;1.80;;;1.42;;
16784;SDS011;8509;52.178;5.404;2023-06-19T00:31:26;1.85;;;1.65;;
16784;SDS011;8509;52.178;5.404;2023-06-19T00:33:52;2.00;;;1.55;;
16784;SDS011;8509;52.178;5.404;2023-06-19T00:36:18;2.25;;;1.73;;
16784;SDS011;8509;52.178;5.404;2023-06-19T00:38:49;2.13;;;1.90;;
16784;SDS011;8509;52.178;5.404;2023-06-19T00:41:15;2.47;;;2.13;;
16784;SDS011;8509;52.178;5.404;2023-06-19T00:43:42;1.88;;;1.60;;
16784;SDS011;8509;52.178;5.404;2023-06-19T00:46:07;1.67;;;1.58;;
16784;SDS011;8509;52.178;5.404;2023-06-19T00:48:33;1.73;;;1.63;;
16784;SDS011;8509;52.178;5.404;2023-06-19T00:51:00;1.70;;;1.60;;
16784;SDS011;8509;52.178;5.404;2023-06-19T00:53:25;2.15;;;1.80;;
16784;SDS011;8509;52.178;5.404;2023-06-19T00:55:53;1.80;;;1.65;;
16784;SDS011;8509;52.178;5.404;2023-06-19T00:58:22;1.77;;;1.50;;
16784;SDS011;8509;52.178;5.404;2023-06-19T01:00:49;1.70;;;1.60;;
16784;SDS011;8509;52.178;5.404;2023-06-19T01:03:15;1.23;;;1.13;;
16784;SDS011;8509;52.178;5.404;2023-06-19T01:05:41;2.13;;;1.67;;
16784;SDS011;8509;52.178;5.404;2023-06-19T01:10:54;1.48;;;1.20;;
16784;SDS011;8509;52.178;5.404;2023-06-19T01:13:39;1.70;;;1.17;;
16784;SDS011;8509;52.178;5.404;2023-06-19T01:16:08;1.70;;;1.30;;
16784;SDS011;8509;52.178;5.404;2023-06-19T01:18:36;1.52;;;1.33;;
16784;SDS011;8509;52.178;5.404;2023-06-19T01:21:15;2.03;;;1.42;;
16784;SDS011;8509;52.178;5.404;2023-06-19T01:23:41;0.98;;;0.95;;
16784;SDS011;8509;52.178;5.404;2023-06-19T01:26:08;1.20;;;1.10;;
16784;SDS011;8509;52.178;5.404;2023-06-19T01:28:35;1.52;;;1.10;;
16784;SDS011;8509;52.178;5.404;2023-06-19T01:31:03;2.30;;;1.60;;
16784;SDS011;8509;52.178;5.404;2023-06-19T01:33:47;2.65;;;1.10;;
16784;SDS011;8509;52.178;5.404;2023-06-19T01:36:15;1.90;;;1.15;;
16784;SDS011;8509;52.178;5.404;2023-06-19T01:38:42;1.17;;;0.98;;
16784;SDS011;8509;52.178;5.404;2023-06-19T01:41:10;1.92;;;1.08;;
16784;SDS011;8509;52.178;5.404;2023-06-19T01:43:37;0.95;;;0.77;;
16784;SDS011;8509;52.178;5.404;2023-06-19T01:46:03;0.88;;;0.77;;
16784;SDS011;8509;52.178;5.404;2023-06-19T01:48:29;1.10;;;1.00;;
16784;SDS011;8509;52.178;5.404;2023-06-19T01:50:55;1.52;;;0.90;;
16784;SDS011;8509;52.178;5.404;2023-06-19T01:53:21;1.67;;;1.25;;
16784;SDS011;8509;52.178;5.404;2023-06-19T01:55:47;1.13;;;0.85;;
16784;SDS011;8509;52.178;5.404;2023-06-19T01:58:12;1.02;;;0.80;;
16784;SDS011;8509;52.178;5.404;2023-06-19T02:00:38;0.93;;;0.77;;
16784;SDS011;8509;52.178;5.404;2023-06-19T02:03:04;1.08;;;1.05;;
16784;SDS011;8509;52.178;5.404;2023-06-19T02:05:30;1.08;;;0.95;;
16784;SDS011;8509;52.178;5.404;2023-06-19T02:07:56;1.20;;;0.88;;
16784;SDS011;8509;52.178;5.404;2023-06-19T02:10:22;2.17;;;0.63;;
16784;SDS011;8509;52.178;5.404;2023-06-19T02:12:48;1.33;;;0.77;;
16784;SDS011;8509;52.178;5.404;2023-06-19T02:15:13;0.88;;;0.70;;
16784;SDS011;8509;52.178;5.404;2023-06-19T02:17:39;0.73;;;0.70;;
16784;SDS011;8509;52.178;5.404;2023-06-19T02:20:07;1.08;;;0.75;;
16784;SDS011;8509;52.178;5.404;2023-06-19T02:22:37;0.82;;;0.80;;
16784;SDS011;8509;52.178;5.404;2023-06-19T02:25:04;2.58;;;0.90;;
16784;SDS011;8509;52.178;5.404;2023-06-19T02:27:30;0.80;;;0.65;;
16784;SDS011;8509;52.178;5.404;2023-06-19T02:29:55;0.63;;;0.63;;
16784;SDS011;8509;52.178;5.404;2023-06-19T02:32:21;1.80;;;1.08;;
16784;SDS011;8509;52.178;5.404;2023-06-19T02:34:47;1.02;;;0.93;;
16784;SDS011;8509;52.178;5.404;2023-06-19T02:37:12;1.45;;;1.02;;
16784;SDS011;8509;52.178;5.404;2023-06-19T02:39:38;2.80;;;1.00;;
16784;SDS011;8509;52.178;5.404;2023-06-19T02:42:04;1.27;;;1.05;;
16784;SDS011;8509;52.178;5.404;2023-06-19T02:44:31;1.40;;;1.00;;
16784;SDS011;8509;52.178;5.404;2023-06-19T02:46:56;3.40;;;0.98;;
16784;SDS011;8509;52.178;5.404;2023-06-19T02:49:22;1.45;;;1.00;;
16784;SDS011;8509;52.178;5.404;2023-06-19T02:51:48;1.13;;;1.00;;
16784;SDS011;8509;52.178;5.404;2023-06-19T02:54:13;2.13;;;1.30;;
16784;SDS011;8509;52.178;5.404;2023-06-19T02:56:39;1.67;;;1.25;;
16784;SDS011;8509;52.178;5.404;2023-06-19T02:59:05;2.13;;;1.35;;
16784;SDS011;8509;52.178;5.404;2023-06-19T03:01:30;1.73;;;0.93;;
16784;SDS011;8509;52.178;5.404;2023-06-19T03:03:56;1.02;;;0.93;;
16784;SDS011;8509;52.178;5.404;2023-06-19T03:06:22;1.08;;;0.98;;
16784;SDS011;8509;52.178;5.404;2023-06-19T03:08:47;1.75;;;1.30;;
16784;SDS011;8509;52.178;5.404;2023-06-19T03:11:13;2.45;;;1.20;;
16784;SDS011;8509;52.178;5.404;2023-06-19T03:13:46;1.27;;;1.10;;
16784;SDS011;8509;52.178;5.404;2023-06-19T03:16:13;1.10;;;1.00;;
16784;SDS011;8509;52.178;5.404;2023-06-19T03:18:40;1.70;;;1.13;;
16784;SDS011;8509;52.178;5.404;2023-06-19T03:21:06;1.48;;;1.15;;
16784;SDS011;8509;52.178;5.404;2023-06-19T03:23:32;1.55;;;1.10;;
16784;SDS011;8509;52.178;5.404;2023-06-19T03:25:57;2.05;;;1.30;;
16784;SDS011;8509;52.178;5.404;2023-06-19T03:28:23;1.48;;;1.25;;
16784;SDS011;8509;52.178;5.404;2023-06-19T03:30:49;0.93;;;0.90;;
16784;SDS011;8509;52.178;5.404;2023-06-19T03:33:15;2.53;;;1.83;;
16784;SDS011;8509;52.178;5.404;2023-06-19T03:35:41;1.38;;;1.27;;
16784;SDS011;8509;52.178;5.404;2023-06-19T03:38:06;1.45;;;1.33;;
16784;SDS011;8509;52.178;5.404;2023-06-19T03:40:32;1.95;;;1.20;;
16784;SDS011;8509;52.178;5.404;2023-06-19T03:42:58;2.03;;;1.63;;
16784;SDS011;8509;52.178;5.404;2023-06-19T03:45:23;4.10;;;1.50;;
16784;SDS011;8509;52.178;5.404;2023-06-19T03:47:49;1.90;;;1.23;;
16784;SDS011;8509;52.178;5.404;2023-06-19T03:50:14;8.98;;;2.13;;
16784;SDS011;8509;52.178;5.404;2023-06-19T03:52:40;2.85;;;2.00;;
16784;SDS011;8509;52.178;5.404;2023-06-19T03:55:06;2.80;;;2.15;;
16784;SDS011;8509;52.178;5.404;2023-06-19T03:57:32;2.53;;;1.65;;
16784;SDS011;8509;52.178;5.404;2023-06-19T03:59:58;3.17;;;2.22;;
16784;SDS011;8509;52.178;5.404;2023-06-19T04:02:23;3.03;;;2.17;;
16784;SDS011;8509;52.178;5.404;2023-06-19T04:04:50;3.40;;;2.35;;
16784;SDS011;8509;52.178;5.404;2023-06-19T04:07:16;2.88;;;1.90;;
16784;SDS011;8509;52.178;5.404;2023-06-19T04:09:41;3.67;;;2.33;;
16784;SDS011;8509;52.178;5.404;2023-06-19T04:12:07;3.10;;;1.98;;
16784;SDS011;8509;52.178;5.404;2023-06-19T04:14:33;5.43;;;3.15;;
16784;SDS011;8509;52.178;5.404;2023-06-19T04:16:58;4.60;;;3.42;;
16784;SDS011;8509;52.178;5.404;2023-06-19T04:19:24;4.18;;;2.80;;
16784;SDS011;8509;52.178;5.404;2023-06-19T04:21:50;5.75;;;2.50;;
16784;SDS011;8509;52.178;5.404;2023-06-19T04:24:15;4.45;;;3.00;;
16784;SDS011;8509;52.178;5.404;2023-06-19T04:26:41;4.43;;;3.45;;
16784;SDS011;8509;52.178;5.404;2023-06-19T04:29:07;4.03;;;2.72;;
16784;SDS011;8509;52.178;5.404;2023-06-19T04:31:33;3.88;;;2.58;;
16784;SDS011;8509;52.178;5.404;2023-06-19T04:34:05;4.35;;;2.40;;
16784;SDS011;8509;52.178;5.404;2023-06-19T04:36:31;4.97;;;2.90;;
16784;SDS011;8509;52.178;5.404;2023-06-19T04:38:57;4.28;;;2.60;;
16784;SDS011;8509;52.178;5.404;2023-06-19T04:41:23;3.78;;;2.35;;
16784;SDS011;8509;52.178;5.404;2023-06-19T04:43:48;4.10;;;2.88;;
16784;SDS011;8509;52.178;5.404;2023-06-19T04:46:14;5.93;;;3.78;;
16784;SDS011;8509;52.178;5.404;2023-06-19T04:48:45;6.35;;;3.72;;
16784;SDS011;8509;52.178;5.404;2023-06-19T04:51:15;5.43;;;3.45;;
16784;SDS011;8509;52.178;5.404;2023-06-19T04:53:45;8.52;;;3.63;;
16784;SDS011;8509;52.178;5.404;2023-06-19T04:56:10;6.75;;;3.35;;
16784;SDS011;8509;52.178;5.404;2023-06-19T04:58:36;4.28;;;2.80;;
16784;SDS011;8509;52.178;5.404;2023-06-19T05:01:09;5.22;;;2.58;;
16784;SDS011;8509;52.178;5.404;2023-06-19T05:03:35;9.57;;;2.72;;
16784;SDS011;8509;52.178;5.404;2023-06-19T05:06:01;5.78;;;2.78;;
16784;SDS011;8509;52.178;5.404;2023-06-19T05:08:26;4.13;;;2.63;;
16784;SDS011;8509;52.178;5.404;2023-06-19T05:10:52;5.10;;;1.98;;
16784;SDS011;8509;52.178;5.404;2023-06-19T05:13:18;3.13;;;1.50;;
16784;SDS011;8509;52.178;5.404;2023-06-19T05:15:44;2.00;;;1.17;;
16784;SDS011;8509;52.178;5.404;2023-06-19T05:18:11;1.75;;;1.20;;
16784;SDS011;8509;52.178;5.404;2023-06-19T05:20:36;0.80;;;0.70;;
16784;SDS011;8509;52.178;5.404;2023-06-19T05:23:02;1.17;;;0.80;;
16784;SDS011;8509;52.178;5.404;2023-06-19T05:25:28;1.13;;;0.80;;
16784;SDS011;8509;52.178;5.404;2023-06-19T05:27:53;2.15;;;1.10;;
16784;SDS011;8509;52.178;5.404;2023-06-19T05:30:19;1.35;;;0.93;;
16784;SDS011;8509;52.178;5.404;2023-06-19T05:32:44;1.00;;;0.90;;
16784;SDS011;8509;52.178;5.404;2023-06-19T05:35:11;0.85;;;0.73;;
16784;SDS011;8509;52.178;5.404;2023-06-19T05:37:36;0.85;;;0.85;;
16784;SDS011;8509;52.178;5.404;2023-06-19T05:40:05;0.80;;;0.70;;
16784;SDS011;8509;52.178;5.404;2023-06-19T05:42:31;0.98;;;0.88;;
16784;SDS011;8509;52.178;5.404;2023-06-19T05:44:57;0.45;;;0.45;;
16784;SDS011;8509;52.178;5.404;2023-06-19T05:47:22;2.15;;;1.00;;
16784;SDS011;8509;52.178;5.404;2023-06-19T05:49:50;4.78;;;0.93;;
16784;SDS011;8509;52.178;5.404;2023-06-19T05:52:16;0.93;;;0.70;;
16784;SDS011;8509;52.178;5.404;2023-06-19T05:54:42;0.73;;;0.73;;
16784;SDS011;8509;52.178;5.404;2023-06-19T05:57:08;1.83;;;0.98;;
16784;SDS011;8509;52.178;5.404;2023-06-19T05:59:33;3.30;;;1.33;;
16784;SDS011;8509;52.178;5.404;2023-06-19T06:01:59;1.10;;;0.85;;
16784;SDS011;8509;52.178;5.404;2023-06-19T06:04:25;1.42;;;1.23;;
16784;SDS011;8509;52.178;5.404;2023-06-19T06:06:51;5.88;;;1.65;;
16784;SDS011;8509;52.178;5.404;2023-06-19T06:09:16;2.25;;;1.98;;
16784;SDS011;8509;52.178;5.404;2023-06-19T06:11:44;2.67;;;1.77;;
16784;SDS011;8509;52.178;5.404;2023-06-19T06:14:10;2.33;;;2.00;;
16784;SDS011;8509;52.178;5.404;2023-06-19T06:16:36;5.53;;;2.22;;
16784;SDS011;8509;52.178;5.404;2023-06-19T06:19:01;2.80;;;1.90;;
16784;SDS011;8509;52.178;5.404;2023-06-19T06:21:27;1.88;;;1.58;;
16784;SDS011;8509;52.178;5.404;2023-06-19T06:23:53;2.28;;;1.85;;
16784;SDS011;8509;52.178;5.404;2023-06-19T06:26:19;2.00;;;1.52;;
16784;SDS011;8509;52.178;5.404;2023-06-19T06:28:46;2.45;;;1.52;;
16784;SDS011;8509;52.178;5.404;2023-06-19T06:31:12;1.83;;;1.35;;
16784;SDS011;8509;52.178;5.404;2023-06-19T06:33:38;1.92;;;1.48;;
16784;SDS011;8509;52.178;5.404;2023-06-19T06:36:05;2.97;;;1.15;;
16784;SDS011;8509;52.178;5.404;2023-06-19T06:38:31;0.95;;;0.85;;
16784;SDS011;8509;52.178;5.404;2023-06-19T06:40:56;1.45;;;1.30;;
16784;SDS011;8509;52.178;5.404;2023-06-19T06:43:22;1.60;;;1.50;;
16784;SDS011;8509;52.178;5.404;2023-06-19T06:45:48;1.40;;;1.23;;
16784;SDS011;8509;52.178;5.404;2023-06-19T06:48:13;2.35;;;1.52;;
16784;SDS011;8509;52.178;5.404;2023-06-19T06:50:39;2.00;;;1.80;;
16784;SDS011;8509;52.178;5.404;2023-06-19T06:53:06;1.98;;;1.77;;
16784;SDS011;8509;52.178;5.404;2023-06-19T06:55:31;2.95;;;1.40;;
16784;SDS011;8509;52.178;5.404;2023-06-19T06:57:57;2.15;;;1.95;;
16784;SDS011;8509;52.178;5.404;2023-06-19T07:00:23;1.75;;;1.65;;
16784;SDS011;8509;52.178;5.404;2023-06-19T07:02:48;1.90;;;1.52;;
16784;SDS011;8509;52.178;5.404;2023-06-19T07:05:15;2.58;;;2.28;;
16784;SDS011;8509;52.178;5.404;2023-06-19T07:07:41;2.00;;;1.73;;
16784;SDS011;8509;52.178;5.404;2023-06-19T07:10:07;1.98;;;1.80;;
16784;SDS011;8509;52.178;5.404;2023-06-19T07:12:34;2.42;;;2.22;;
16784;SDS011;8509;52.178;5.404;2023-06-19T07:14:59;2.17;;;1.95;;
16784;SDS011;8509;52.178;5.404;2023-06-19T07:17:25;2.38;;;2.17;;
16784;SDS011;8509;52.178;5.404;2023-06-19T07:19:51;2.42;;;1.95;;
16784;SDS011;8509;52.178;5.404;2023-06-19T07:22:17;2.55;;;2.35;;
16784;SDS011;8509;52.178;5.404;2023-06-19T07:24:42;6.00;;;2.83;;
16784;SDS011;8509;52.178;5.404;2023-06-19T07:27:08;3.63;;;2.10;;
16784;SDS011;8509;52.178;5.404;2023-06-19T07:29:34;2.60;;;2.40;;
16784;SDS011;8509;52.178;5.404;2023-06-19T07:31:59;3.10;;;2.33;;
16784;SDS011;8509;52.178;5.404;2023-06-19T07:34:27;2.42;;;2.05;;
16784;SDS011;8509;52.178;5.404;2023-06-19T07:36:53;3.13;;;2.75;;
16784;SDS011;8509;52.178;5.404;2023-06-19T07:39:18;3.17;;;2.10;;
16784;SDS011;8509;52.178;5.404;2023-06-19T07:41:44;3.20;;;2.90;;
16784;SDS011;8509;52.178;5.404;2023-06-19T07:44:11;2.63;;;2.05;;
16784;SDS011;8509;52.178;5.404;2023-06-19T07:46:36;4.55;;;1.95;;
16784;SDS011;8509;52.178;5.404;2023-06-19T07:49:02;2.95;;;2.38;;
16784;SDS011;8509;52.178;5.404;2023-06-19T07:51:28;3.00;;;2.10;;
16784;SDS011;8509;52.178;5.404;2023-06-19T07:53:53;2.20;;;2.00;;
16784;SDS011;8509;52.178;5.404;2023-06-19T07:56:19;2.65;;;2.05;;
16784;SDS011;8509;52.178;5.404;2023-06-19T07:58:45;1.48;;;1.38;;
16784;SDS011;8509;52.178;5.404;2023-06-19T08:01:12;2.45;;;1.63;;
16784;SDS011;8509;52.178;5.404;2023-06-19T08:03:37;1.95;;;1.85;;
16784;SDS011;8509;52.178;5.404;2023-06-19T08:06:03;1.98;;;1.55;;
16784;SDS011;8509;52.178;5.404;2023-06-19T08:08:29;2.00;;;1.80;;
16784;SDS011;8509;52.178;5.404;2023-06-19T08:10:54;2.63;;;2.28;;
16784;SDS011;8509;52.178;5.404;2023-06-19T08:13:20;5.03;;;2.35;;
16784;SDS011;8509;52.178;5.404;2023-06-19T08:15:46;1.90;;;1.65;;
16784;SDS011;8509;52.178;5.404;2023-06-19T08:18:11;1.83;;;1.60;;
16784;SDS011;8509;52.178;5.404;2023-06-19T08:20:37;3.08;;;1.88;;
16784;SDS011;8509;52.178;5.404;2023-06-19T08:23:02;1.73;;;1.63;;
16784;SDS011;8509;52.178;5.404;2023-06-19T08:25:28;1.85;;;1.67;;
16784;SDS011;8509;52.178;5.404;2023-06-19T08:27:54;1.83;;;1.73;;
16784;SDS011;8509;52.178;5.404;2023-06-19T08:30:19;1.85;;;1.67;;
16784;SDS011;8509;52.178;5.404;2023-06-19T08:32:45;2.15;;;1.65;;
16784;SDS011;8509;52.178;5.404;2023-06-19T08:35:11;1.95;;;1.75;;
16784;SDS011;8509;52.178;5.404;2023-06-19T08:37:37;2.15;;;1.85;;
16784;SDS011;8509;52.178;5.404;2023-06-19T08:40:03;3.38;;;2.13;;
16784;SDS011;8509;52.178;5.404;2023-06-19T08:42:33;2.40;;;1.95;;
16784;SDS011;8509;52.178;5.404;2023-06-19T08:44:59;2.30;;;1.50;;
16784;SDS011;8509;52.178;5.404;2023-06-19T08:47:29;1.85;;;1.75;;
16784;SDS011;8509;52.178;5.404;2023-06-19T08:49:56;2.55;;;2.28;;
16784;SDS011;8509;52.178;5.404;2023-06-19T08:52:23;2.55;;;2.35;;
16784;SDS011;8509;52.178;5.404;2023-06-19T08:54:48;3.97;;;1.90;;
16784;SDS011;8509;52.178;5.404;2023-06-19T08:57:14;1.60;;;1.50;;
16784;SDS011;8509;52.178;5.404;2023-06-19T08:59:41;2.47;;;2.13;;
16784;SDS011;8509;52.178;5.404;2023-06-19T09:02:16;2.97;;;2.10;;
16784;SDS011;8509;52.178;5.404;2023-06-19T09:04:42;7.22;;;2.00;;
16784;SDS011;8509;52.178;5.404;2023-06-19T09:07:08;2.97;;;2.67;;
16784;SDS011;8509;52.178;5.404;2023-06-19T09:09:34;3.00;;;2.78;;
16784;SDS011;8509;52.178;5.404;2023-06-19T09:14:43;1.80;;;1.70;;
16784;SDS011;8509;52.178;5.404;2023-06-19T09:17:13;2.45;;;2.15;;
16784;SDS011;8509;52.178;5.404;2023-06-19T09:19:47;1.73;;;1.63;;
16784;SDS011;8509;52.178;5.404;2023-06-19T09:22:17;2.70;;;2.10;;
16784;SDS011;8509;52.178;5.404;2023-06-19T09:24:46;2.95;;;2.35;;
16784;SDS011;8509;52.178;5.404;2023-06-19T09:29:42;2.45;;;2.25;;
16784;SDS011;8509;52.178;5.404;2023-06-19T09:32:18;2.60;;;2.17;;
16784;SDS011;8509;52.178;5.404;2023-06-19T09:34:48;2.67;;;2.13;;
16784;SDS011;8509;52.178;5.404;2023-06-19T09:37:17;2.10;;;1.90;;
16784;SDS011;8509;52.178;5.404;2023-06-19T09:39:53;2.40;;;2.20;;
16784;SDS011;8509;52.178;5.404;2023-06-19T09:42:27;2.15;;;1.98;;
16784;SDS011;8509;52.178;5.404;2023-06-19T09:45:03;2.47;;;2.28;;
16784;SDS011;8509;52.178;5.404;2023-06-19T09:47:52;3.05;;;2.45;;
16784;SDS011;8509;52.178;5.404;2023-06-19T09:50:18;2.03;;;1.92;;
16784;SDS011;8509;52.178;5.404;2023-06-19T09:52:48;2.03;;;1.92;;
16784;SDS011;8509;52.178;5.404;2023-06-19T09:55:16;2.80;;;2.25;;
16784;SDS011;8509;52.178;5.404;2023-06-19T09:57:44;2.25;;;2.08;;
16784;SDS011;8509;52.178;5.404;2023-06-19T10:00:10;2.65;;;2.45;;
16784;SDS011;8509;52.178;5.404;2023-06-19T10:02:37;2.45;;;1.83;;
16784;SDS011;8509;52.178;5.404;2023-06-19T10:05:04;2.20;;;2.00;;
16784;SDS011;8509;52.178;5.404;2023-06-19T10:07:33;2.95;;;2.65;;
16784;SDS011;8509;52.178;5.404;2023-06-19T10:10:25;2.33;;;2.13;;
16784;SDS011;8509;52.178;5.404;2023-06-19T10:12:49;2.75;;;2.53;;
16784;SDS011;8509;52.178;5.404;2023-06-19T10:15:16;2.38;;;2.13;;
16784;SDS011;8509;52.178;5.404;2023-06-19T10:17:45;3.15;;;2.58;;
16784;SDS011;8509;52.178;5.404;2023-06-19T10:20:24;2.83;;;2.63;;
16784;SDS011;8509;52.178;5.404;2023-06-19T10:22:58;2.55;;;2.30;;
16784;SDS011;8509;52.178;5.404;2023-06-19T10:25:33;2.75;;;2.53;;
16784;SDS011;8509;52.178;5.404;2023-06-19T10:28:01;2.92;;;2.55;;
16784;SDS011;8509;52.178;5.404;2023-06-19T10:30:30;2.00;;;1.90;;
16784;SDS011;8509;52.178;5.404;2023-06-19T10:32:57;1.63;;;1.52;;
16784;SDS011;8509;52.178;5.404;2023-06-19T10:35:22;3.45;;;2.38;;
16784;SDS011;8509;52.178;5.404;2023-06-19T10:37:49;2.28;;;1.95;;
16784;SDS011;8509;52.178;5.404;2023-06-19T10:40:16;3.67;;;2.15;;
16784;SDS011;8509;52.178;5.404;2023-06-19T10:42:42;2.95;;;2.40;;
16784;SDS011;8509;52.178;5.404;2023-06-19T10:45:10;2.75;;;2.55;;
16784;SDS011;8509;52.178;5.404;2023-06-19T10:47:40;3.55;;;2.22;;
16784;SDS011;8509;52.178;5.404;2023-06-19T10:50:09;2.53;;;2.20;;
16784;SDS011;8509;52.178;5.404;2023-06-19T10:52:43;2.35;;;2.15;;
16784;SDS011;8509;52.178;5.404;2023-06-19T10:55:10;2.75;;;2.40;;
16784;SDS011;8509;52.178;5.404;2023-06-19T10:57:38;2.42;;;2.22;;
16784;SDS011;8509;52.178;5.404;2023-06-19T11:00:11;2.00;;;1.80;;
16784;SDS011;8509;52.178;5.404;2023-06-19T11:02:51;2.72;;;2.53;;
16784;SDS011;8509;52.178;5.404;2023-06-19T11:05:20;2.70;;;2.30;;
16784;SDS011;8509;52.178;5.404;2023-06-19T11:08:05;2.75;;;2.40;;
16784;SDS011;8509;52.178;5.404;2023-06-19T11:10:31;2.58;;;2.38;;
16784;SDS011;8509;52.178;5.404;2023-06-19T11:12:57;3.28;;;2.97;;
16784;SDS011;8509;52.178;5.404;2023-06-19T11:15:30;2.35;;;2.10;;
16784;SDS011;8509;52.178;5.404;2023-06-19T11:17:57;3.47;;;2.60;;
16784;SDS011;8509;52.178;5.404;2023-06-19T11:20:24;3.53;;;2.50;;
16784;SDS011;8509;52.178;5.404;2023-06-19T11:22:54;3.20;;;2.83;;
16784;SDS011;8509;52.178;5.404;2023-06-19T11:25:34;2.20;;;1.88;;
16784;SDS011;8509;52.178;5.404;2023-06-19T11:28:04;2.97;;;2.35;;
16784;SDS011;8509;52.178;5.404;2023-06-19T11:30:42;2.58;;;2.38;;
16784;SDS011;8509;52.178;5.404;2023-06-19T11:33:17;2.03;;;1.60;;
16784;SDS011;8509;52.178;5.404;2023-06-19T11:35:47;2.17;;;1.90;;
16784;SDS011;8509;52.178;5.404;2023-06-19T11:38:20;2.90;;;2.00;;
16784;SDS011;8509;52.178;5.404;2023-06-19T11:40:48;3.10;;;2.50;;
16784;SDS011;8509;52.178;5.404;2023-06-19T11:43:26;2.33;;;2.13;;
16784;SDS011;8509;52.178;5.404;2023-06-19T11:45:53;3.20;;;2.50;;
16784;SDS011;8509;52.178;5.404;2023-06-19T11:48:24;2.45;;;2.20;;
16784;SDS011;8509;52.178;5.404;2023-06-19T11:50:51;2.08;;;1.88;;
16784;SDS011;8509;52.178;5.404;2023-06-19T11:53:18;2.17;;;1.98;;
16784;SDS011;8509;52.178;5.404;2023-06-19T11:55:45;1.98;;;1.77;;
16784;SDS011;8509;52.178;5.404;2023-06-19T11:58:11;2.53;;;2.33;;
16784;SDS011;8509;52.178;5.404;2023-06-19T12:00:36;2.30;;;2.10;;
16784;SDS011;8509;52.178;5.404;2023-06-19T12:03:03;2.25;;;2.03;;
16784;SDS011;8509;52.178;5.404;2023-06-19T12:05:29;1.95;;;1.85;;
16784;SDS011;8509;52.178;5.404;2023-06-19T12:07:54;1.83;;;1.73;;
16784;SDS011;8509;52.178;5.404;2023-06-19T12:10:20;1.95;;;1.77;;
16784;SDS011;8509;52.178;5.404;2023-06-19T12:12:46;2.08;;;1.88;;
16784;SDS011;8509;52.178;5.404;2023-06-19T12:15:11;1.67;;;1.58;;
16784;SDS011;8509;52.178;5.404;2023-06-19T12:17:37;1.73;;;1.55;;
16784;SDS011;8509;52.178;5.404;2023-06-19T12:20:03;2.47;;;1.77;;
16784;SDS011;8509;52.178;5.404;2023-06-19T12:22:33;2.10;;;1.88;;
16784;SDS011;8509;52.178;5.404;2023-06-19T12:24:59;2.00;;;1.60;;
16784;SDS011;8509;52.178;5.404;2023-06-19T12:27:26;2.30;;;2.00;;
16784;SDS011;8509;52.178;5.404;2023-06-19T12:29:51;2.55;;;1.88;;
16784;SDS011;8509;52.178;5.404;2023-06-19T12:32:17;1.88;;;1.77;;
16784;SDS011;8509;52.178;5.404;2023-06-19T12:34:43;2.33;;;2.13;;
16784;SDS011;8509;52.178;5.404;2023-06-19T12:37:13;2.22;;;2.03;;
16784;SDS011;8509;52.178;5.404;2023-06-19T12:39:40;2.00;;;1.77;;
16784;SDS011;8509;52.178;5.404;2023-06-19T12:42:07;2.05;;;1.85;;
16784;SDS011;8509;52.178;5.404;2023-06-19T12:44:32;2.00;;;1.80;;
16784;SDS011;8509;52.178;5.404;2023-06-19T12:46:58;2.00;;;1.58;;
16784;SDS011;8509;52.178;5.404;2023-06-19T12:49:25;1.75;;;1.58;;
16784;SDS011;8509;52.178;5.404;2023-06-19T12:51:52;2.75;;;1.42;;
16784;SDS011;8509;52.178;5.404;2023-06-19T12:54:18;1.98;;;1.77;;
16784;SDS011;8509;52.178;5.404;2023-06-19T12:56:44;1.88;;;1.77;;
16784;SDS011;8509;52.178;5.404;2023-06-19T12:59:10;2.03;;;1.55;;
16784;SDS011;8509;52.178;5.404;2023-06-19T13:01:36;1.95;;;1.75;;
16784;SDS011;8509;52.178;5.404;2023-06-19T13:04:01;2.30;;;1.90;;
16784;SDS011;8509;52.178;5.404;2023-06-19T13:06:28;2.58;;;1.95;;
16784;SDS011;8509;52.178;5.404;2023-06-19T13:08:54;2.33;;;1.90;;
16784;SDS011;8509;52.178;5.404;2023-06-19T13:11:20;1.80;;;1.65;;
16784;SDS011;8509;52.178;5.404;2023-06-19T13:13:45;2.63;;;1.95;;
16784;SDS011;8509;52.178;5.404;2023-06-19T13:16:11;4.18;;;1.95;;
16784;SDS011;8509;52.178;5.404;2023-06-19T13:18:37;1.90;;;1.80;;
16784;SDS011;8509;52.178;5.404;2023-06-19T13:21:03;2.03;;;1.83;;
16784;SDS011;8509;52.178;5.404;2023-06-19T13:23:28;1.60;;;1.42;;
16784;SDS011;8509;52.178;5.404;2023-06-19T13:25:56;1.45;;;1.35;;
16784;SDS011;8509;52.178;5.404;2023-06-19T13:28:22;2.25;;;2.05;;
16784;SDS011;8509;52.178;5.404;2023-06-19T13:30:49;2.08;;;1.88;;
16784;SDS011;8509;52.178;5.404;2023-06-19T13:33:17;2.00;;;1.75;;
16784;SDS011;8509;52.178;5.404;2023-06-19T13:35:43;1.95;;;1.77;;
16784;SDS011;8509;52.178;5.404;2023-06-19T13:38:09;1.60;;;1.50;;
16784;SDS011;8509;52.178;5.404;2023-06-19T13:40:35;1.80;;;1.70;;
16784;SDS011;8509;52.178;5.404;2023-06-19T13:43:01;1.30;;;1.20;;
16784;SDS011;8509;52.178;5.404;2023-06-19T13:45:28;2.67;;;1.90;;
16784;SDS011;8509;52.178;5.404;2023-06-19T13:47:55;2.05;;;1.77;;
16784;SDS011;8509;52.178;5.404;2023-06-19T13:50:23;1.60;;;1.50;;
16784;SDS011;8509;52.178;5.404;2023-06-19T13:52:48;1.92;;;1.83;;
16784;SDS011;8509;52.178;5.404;2023-06-19T13:55:16;1.80;;;1.70;;
16784;SDS011;8509;52.178;5.404;2023-06-19T13:57:44;7.03;;;2.30;;
16784;SDS011;8509;52.178;5.404;2023-06-19T14:00:10;1.55;;;1.45;;
16784;SDS011;8509;52.178;5.404;2023-06-19T14:02:38;1.80;;;1.70;;
16784;SDS011;8509;52.178;5.404;2023-06-19T14:05:06;2.15;;;1.60;;
16784;SDS011;8509;52.178;5.404;2023-06-19T14:07:32;2.15;;;1.95;;
16784;SDS011;8509;52.178;5.404;2023-06-19T14:10:00;1.98;;;1.80;;
16784;SDS011;8509;52.178;5.404;2023-06-19T14:12:27;1.73;;;1.63;;
16784;SDS011;8509;52.178;5.404;2023-06-19T14:14:52;1.63;;;1.52;;
16784;SDS011;8509;52.178;5.404;2023-06-19T14:17:20;5.20;;;2.38;;
16784;SDS011;8509;52.178;5.404;2023-06-19T14:19:46;1.70;;;1.60;;
16784;SDS011;8509;52.178;5.404;2023-06-19T14:22:11;2.03;;;1.83;;
16784;SDS011;8509;52.178;5.404;2023-06-19T14:24:37;2.17;;;1.92;;
16784;SDS011;8509;52.178;5.404;2023-06-19T14:27:03;2.33;;;2.15;;
16784;SDS011;8509;52.178;5.404;2023-06-19T14:29:29;5.88;;;2.33;;
16784;SDS011;8509;52.178;5.404;2023-06-19T14:31:55;1.88;;;1.67;;
16784;SDS011;8509;52.178;5.404;2023-06-19T14:34:20;2.10;;;1.90;;
16784;SDS011;8509;52.178;5.404;2023-06-19T14:36:46;1.10;;;1.10;;
16784;SDS011;8509;52.178;5.404;2023-06-19T14:39:12;1.55;;;1.45;;
16784;SDS011;8509;52.178;5.404;2023-06-19T14:41:38;3.45;;;2.60;;
16784;SDS011;8509;52.178;5.404;2023-06-19T14:44:04;1.58;;;1.48;;
16784;SDS011;8509;52.178;5.404;2023-06-19T14:46:31;1.40;;;1.30;;
16784;SDS011;8509;52.178;5.404;2023-06-19T14:48:57;1.75;;;1.65;;
16784;SDS011;8509;52.178;5.404;2023-06-19T14:51:25;1.83;;;1.67;;
16784;SDS011;8509;52.178;5.404;2023-06-19T14:53:52;1.83;;;1.73;;
16784;SDS011;8509;52.178;5.404;2023-06-19T14:56:17;2.50;;;1.85;;
16784;SDS011;8509;52.178;5.404;2023-06-19T14:58:43;2.00;;;1.80;;
16784;SDS011;8509;52.178;5.404;2023-06-19T15:01:09;1.80;;;1.70;;
16784;SDS011;8509;52.178;5.404;2023-06-19T15:03:35;2.40;;;1.75;;
16784;SDS011;8509;52.178;5.404;2023-06-19T15:06:02;1.75;;;1.65;;
16784;SDS011;8509;52.178;5.404;2023-06-19T15:08:28;2.10;;;1.90;;